Time;durP1;ratioP1;P1;durP2;ratioP2;P2;SDS_P1;SDS_P2;PMS_P1;PMS_P2;Temp;Humidity;BMP_temperature;BMP_pressure;BME280_temperature;BME280_humidity;BME280_pressure;Samples;Min_cycle;Max_cycle;Signal;HPM_P1;HPM_P2
2021/06/03 08:59:58;;;;;;;10.87;8.43;;;22.50;99.90;;;;;;5023125;28;20474;-90
2021/06/03 09:02:41;;;;;;;7.93;7.10;;;22.60;99.90;;;;;;4991009;28;20552;-73
2021/06/03 09:05:08;;;;;;;7.47;6.70;;;22.60;99.90;;;;;;4995026;28;20467;-74
2021/06/03 09:07:38;;;;;;;8.97;8.07;;;22.70;99.90;;;;;;4990838;28;20530;-75
2021/06/03 09:10:28;;;;;;;10.43;8.30;;;22.60;99.90;;;;;;4995786;28;20456;-74
2021/06/03 09:13:10;;;;;;;10.57;7.13;;;22.60;99.90;;;;;;4993759;28;20803;-70
2021/06/03 09:15:42;;;;;;;9.50;8.00;;;22.60;99.90;;;;;;4990856;28;20468;-71
2021/06/03 09:18:10;;;;;;;8.73;7.83;;;22.70;99.90;;;;;;4989443;28;20472;-75
2021/06/03 09:20:38;;;;;;;8.60;6.93;;;22.70;99.90;;;;;;4992018;28;20463;-74
2021/06/03 09:23:06;;;;;;;10.80;8.10;;;22.80;99.80;;;;;;4996037;28;21031;-75
2021/06/03 09:25:37;;;;;;;11.27;7.47;;;22.90;99.90;;;;;;4993267;28;20928;-75
2021/06/03 09:28:23;;;;;;;8.33;6.40;;;22.90;99.90;;;;;;4992248;28;20482;-75
2021/06/03 09:31:15;;;;;;;9.90;8.73;;;23.10;99.90;;;;;;4987980;28;20535;-78
2021/06/03 09:34:01;;;;;;;10.77;8.13;;;23.10;99.70;;;;;;4992535;28;20512;-76
2021/06/03 09:36:38;;;;;;;9.97;8.10;;;23.00;99.90;;;;;;4988114;28;20908;-76
2021/06/03 09:39:11;;;;;;;8.83;7.93;;;23.10;99.90;;;;;;4990333;28;20919;-76
2021/06/03 09:41:42;;;;;;;14.80;8.60;;;23.10;99.50;;;;;;4987804;28;20456;-74
2021/06/03 09:44:18;;;;;;;12.03;8.00;;;23.30;99.40;;;;;;4992895;28;20938;-75
2021/06/03 09:46:47;;;;;;;11.53;8.57;;;23.50;98.70;;;;;;4992921;28;20963;-74
2021/06/03 09:49:31;;;;;;;13.53;8.33;;;23.70;98.20;;;;;;4993679;28;20453;-73
2021/06/03 09:52:00;;;;;;;10.20;8.50;;;23.80;97.60;;;;;;4993963;28;20919;-75
2021/06/03 09:54:27;;;;;;;8.97;8.07;;;23.90;97.10;;;;;;4994423;28;20957;-74
2021/06/03 09:56:57;;;;;;;9.87;7.63;;;23.90;96.90;;;;;;4988993;28;20552;-75
2021/06/03 09:59:26;;;;;;;8.47;7.53;;;23.80;96.90;;;;;;4979361;28;20434;-77
2021/06/03 10:02:02;;;;;;;9.20;6.93;;;23.70;97.10;;;;;;4977138;28;20879;-73
2021/06/03 10:04:40;;;;;;;11.10;6.83;;;23.90;96.90;;;;;;4980784;28;20456;-76
2021/06/03 10:07:15;;;;;;;12.80;7.10;;;24.00;96.90;;;;;;4981161;28;21017;-73
2021/06/03 10:09:47;;;;;;;7.13;6.43;;;24.20;96.90;;;;;;4988351;28;20513;-75
2021/06/03 10:12:36;;;;;;;10.77;7.23;;;24.20;96.30;;;;;;4986098;28;20934;-74
2021/06/03 10:15:10;;;;;;;9.60;7.00;;;24.60;96.10;;;;;;4997144;28;20845;-71
2021/06/03 10:17:38;;;;;;;8.53;6.83;;;24.80;95.50;;;;;;4980585;28;20480;-75
2021/06/03 10:20:12;;;;;;;13.30;7.57;;;25.00;94.90;;;;;;4987720;28;20459;-74
2021/06/03 10:22:40;;;;;;;10.63;7.03;;;25.20;94.60;;;;;;4987185;28;20457;-73
2021/06/03 10:25:11;;;;;;;8.60;7.70;;;25.50;94.10;;;;;;4981670;28;20465;-72
2021/06/03 10:27:40;;;;;;;11.10;8.40;;;25.60;93.90;;;;;;4978885;28;20495;-76
2021/06/03 10:30:14;;;;;;;9.93;8.70;;;25.90;93.10;;;;;;4978096;28;20445;-73
2021/06/03 10:32:41;;;;;;;11.43;8.50;;;26.10;92.50;;;;;;4992019;28;20517;-73
2021/06/03 10:35:13;;;;;;;7.57;6.87;;;26.00;92.60;;;;;;4991118;28;20449;-71
2021/06/03 10:37:41;;;;;;;12.50;7.90;;;26.00;92.70;;;;;;4989605;28;20830;-72
2021/06/03 10:40:11;;;;;;;8.53;7.70;;;25.90;92.80;;;;;;4991327;28;20449;-74
2021/06/03 10:42:39;;;;;;;7.80;7.10;;;25.80;93.00;;;;;;4992264;28;20457;-73
2021/06/03 10:45:19;;;;;;;13.33;8.03;;;26.00;92.80;;;;;;4992533;28;20498;-76
2021/06/03 10:47:46;;;;;;;9.93;8.00;;;25.80;93.10;;;;;;4990129;28;20511;-69
2021/06/03 10:50:19;;;;;;;8.80;7.90;;;26.00;93.00;;;;;;4991628;28;20441;-70
2021/06/03 10:52:47;;;;;;;8.10;7.30;;;26.20;92.50;;;;;;4993601;28;20799;-70
2021/06/03 10:55:27;;;;;;;13.63;7.80;;;26.50;92.30;;;;;;4991344;28;20448;-70
2021/06/03 10:57:57;;;;;;;9.90;8.90;;;26.50;92.30;;;;;;4991806;28;21013;-71
2021/06/03 11:00:36;;;;;;;11.10;7.70;;;26.60;92.20;;;;;;4990989;28;20607;-71
2021/06/03 11:03:05;;;;;;;11.67;8.60;;;26.70;92.20;;;;;;4985426;28;20453;-71
2021/06/03 11:05:35;;;;;;;16.03;9.70;;;26.70;91.80;;;;;;4990290;28;20437;-70
2021/06/03 11:08:28;;;;;;;7.27;6.57;;;26.60;91.70;;;;;;4989185;28;20488;-70
2021/06/03 11:10:56;;;;;;;10.70;8.30;;;26.40;92.10;;;;;;4987397;28;20452;-69
2021/06/03 11:13:23;;;;;;;14.00;9.07;;;26.30;92.40;;;;;;4991702;28;20441;-68
2021/06/03 11:16:08;;;;;;;11.33;8.60;;;26.10;92.70;;;;;;4992154;28;20807;-71
2021/06/03 11:19:08;;;;;;;9.27;8.50;;;26.10;92.80;;;;;;4986577;28;20548;-70
2021/06/03 11:21:57;;;;;;;10.03;7.47;;;26.10;92.80;;;;;;4988612;28;20456;-70
2021/06/03 11:24:42;;;;;;;10.83;9.90;;;26.20;92.50;;;;;;4987527;28;20931;-69
2021/06/03 11:27:11;;;;;;;9.30;7.17;;;26.30;92.80;;;;;;4983032;28;21049;-70
2021/06/03 11:29:41;;;;;;;17.80;9.60;;;26.50;92.70;;;;;;4991265;28;20533;-69
2021/06/03 11:32:22;;;;;;;17.67;8.20;;;26.50;92.20;;;;;;4991729;28;20456;-67
2021/06/03 11:34:52;;;;;;;12.17;9.80;;;26.50;92.10;;;;;;4989354;28;20555;-68
2021/06/03 11:37:23;;;;;;;8.10;7.33;;;26.50;92.40;;;;;;4991465;28;20476;-72
2021/06/03 11:39:52;;;;;;;9.70;7.70;;;26.70;92.20;;;;;;4990647;28;20451;-69
2021/06/03 11:42:31;;;;;;;11.73;8.33;;;26.60;91.60;;;;;;4991796;28;20436;-69
2021/06/03 11:45:29;;;;;;;7.37;6.47;;;26.70;91.50;;;;;;4992129;28;20539;-71
2021/06/03 11:48:06;;;;;;;9.50;8.60;;;26.90;91.10;;;;;;4987415;28;20943;-70
2021/06/03 11:50:39;;;;;;;8.57;7.30;;;27.20;90.80;;;;;;4988365;28;20480;-69
2021/06/03 11:53:10;;;;;;;9.10;7.33;;;27.60;90.10;;;;;;4990195;28;20567;-70
2021/06/03 11:55:39;;;;;;;9.83;6.60;;;27.90;89.40;;;;;;4988303;28;20812;-68
2021/06/03 11:58:20;;;;;;;8.57;7.40;;;28.20;88.40;;;;;;4990986;28;20460;-70
2021/06/03 12:00:48;;;;;;;10.67;7.33;;;28.50;87.50;;;;;;4988687;28;20946;-68
2021/06/03 12:03:24;;;;;;;7.50;6.40;;;28.90;86.30;;;;;;4991450;28;20445;-70
2021/06/03 12:05:55;;;;;;;9.17;8.23;;;29.20;84.60;;;;;;4994627;28;20883;-71
2021/06/03 12:08:48;;;;;;;8.70;7.87;;;29.10;84.60;;;;;;4994400;28;20843;-71
2021/06/03 12:11:18;;;;;;;15.17;8.13;;;29.00;84.50;;;;;;4979458;28;20803;-71
2021/06/03 12:13:47;;;;;;;9.53;7.30;;;29.10;84.80;;;;;;4995266;28;20531;-70
2021/06/03 12:16:14;;;;;;;12.07;8.10;;;29.30;84.20;;;;;;4994747;28;20831;-72
2021/06/03 12:18:43;;;;;;;8.70;7.80;;;29.30;84.00;;;;;;4994578;28;20459;-69
2021/06/03 12:21:12;;;;;;;9.53;6.83;;;29.40;83.20;;;;;;4994374;28;20479;-68
2021/06/03 12:23:49;;;;;;;8.53;7.37;;;29.50;82.80;;;;;;4995386;28;20522;-68
2021/06/03 12:26:18;;;;;;;9.63;8.20;;;29.70;82.50;;;;;;4992016;28;20475;-70
2021/06/03 12:28:45;;;;;;;8.87;7.97;;;29.70;81.30;;;;;;4994114;28;20484;-70
2021/06/03 12:31:23;;;;;;;12.53;9.53;;;29.50;82.30;;;;;;4994944;28;20456;-70
2021/06/03 12:33:51;;;;;;;9.77;8.47;;;29.60;82.50;;;;;;4994168;28;20543;-70
2021/06/03 12:36:18;;;;;;;8.37;7.57;;;29.50;81.70;;;;;;4994105;28;20472;-69
2021/06/03 12:38:49;;;;;;;9.57;8.60;;;29.20;82.20;;;;;;4984759;28;20476;-70
2021/06/03 12:41:28;;;;;;;9.73;8.10;;;29.10;82.80;;;;;;4989162;28;20457;-71
2021/06/03 12:43:58;;;;;;;10.63;9.50;;;28.80;84.00;;;;;;4986092;28;20452;-70
2021/06/03 12:46:33;;;;;;;10.10;9.10;;;28.30;84.20;;;;;;4994842;28;20464;-70
2021/06/03 12:49:07;;;;;;;11.13;8.33;;;27.90;85.60;;;;;;4992988;28;20849;-70
2021/06/03 12:51:35;;;;;;;10.03;8.50;;;27.60;87.10;;;;;;4987713;28;20468;-70
2021/06/03 12:54:03;;;;;;;13.80;9.30;;;27.70;87.70;;;;;;4994243;28;20452;-71
2021/06/03 12:56:31;;;;;;;30.90;14.27;;;27.30;89.10;;;;;;4988147;28;20483;-67
2021/06/03 12:58:58;;;;;;;16.00;10.80;;;27.30;90.00;;;;;;4990534;28;20433;-70
2021/06/03 13:01:26;;;;;;;11.93;9.23;;;27.30;89.50;;;;;;4993389;28;20825;-70
2021/06/03 13:03:55;;;;;;;10.57;7.77;;;27.30;89.10;;;;;;4994111;28;21024;-67
2021/06/03 13:06:28;;;;;;;13.37;9.73;;;27.30;89.50;;;;;;4993990;28;20469;-68
2021/06/03 13:09:00;;;;;;;14.43;8.73;;;27.20;89.90;;;;;;4992935;28;20519;-68
2021/06/03 13:11:34;;;;;;;9.50;8.37;;;27.40;89.90;;;;;;4991157;28;20794;-69
2021/06/03 13:14:17;;;;;;;9.83;8.37;;;27.40;89.20;;;;;;4991720;28;20451;-69
2021/06/03 13:16:45;;;;;;;9.20;8.33;;;27.40;89.10;;;;;;4991929;28;20479;-67
2021/06/03 13:19:17;;;;;;;12.83;8.30;;;27.30;89.70;;;;;;4990078;28;20440;-68
2021/06/03 13:21:44;;;;;;;11.30;7.17;;;27.50;89.60;;;;;;4988613;28;20799;-68
2021/06/03 13:24:20;;;;;;;9.70;8.27;;;27.80;88.80;;;;;;4984027;28;20448;-69
2021/06/03 13:26:49;;;;;;;7.57;6.87;;;28.10;87.50;;;;;;4989378;28;20480;-68
2021/06/03 13:29:16;;;;;;;8.20;6.60;;;28.20;86.20;;;;;;4987904;28;20493;-71
2021/06/03 13:31:43;;;;;;;8.87;6.43;;;28.50;85.20;;;;;;4987061;28;20453;-67
2021/06/03 13:34:30;;;;;;;13.60;6.83;;;28.60;85.00;;;;;;4987124;28;20451;-72
2021/06/03 13:36:59;;;;;;;6.70;5.93;;;28.90;84.20;;;;;;4980054;28;20477;-70
2021/06/03 13:39:29;;;;;;;8.83;6.00;;;28.90;83.50;;;;;;4980376;28;20467;-70
2021/06/03 13:41:57;;;;;;;6.77;6.17;;;28.90;83.30;;;;;;4980935;28;20456;-72
2021/06/03 13:44:25;;;;;;;13.40;5.90;;;28.80;84.00;;;;;;4982140;28;20479;-72
2021/06/03 13:46:54;;;;;;;6.37;5.77;;;28.60;84.10;;;;;;4979978;28;20559;-75
2021/06/03 13:49:26;;;;;;;9.53;6.00;;;28.60;84.00;;;;;;4979580;28;20493;-71
2021/06/03 13:52:01;;;;;;;11.47;6.03;;;28.40;85.20;;;;;;4981728;28;20546;-71
2021/06/03 13:54:28;;;;;;;13.13;5.47;;;28.50;85.20;;;;;;4984043;28;20456;-71
2021/06/03 13:56:57;;;;;;;9.07;6.07;;;28.70;84.20;;;;;;4980721;28;20468;-73
2021/06/03 13:59:23;;;;;;;7.63;5.10;;;28.60;84.90;;;;;;4981262;28;20461;-71
2021/06/03 14:01:51;;;;;;;6.03;5.43;;;28.60;84.60;;;;;;4981066;28;20452;-72
2021/06/03 14:04:20;;;;;;;8.97;5.93;;;28.50;84.90;;;;;;4979519;28;20468;-70
2021/06/03 14:06:49;;;;;;;11.33;5.57;;;28.40;84.50;;;;;;4981653;28;20472;-70
2021/06/03 14:09:28;;;;;;;8.50;6.40;;;28.50;85.00;;;;;;4977834;28;20841;-70
2021/06/03 14:12:11;;;;;;;7.83;6.23;;;28.50;85.20;;;;;;4981504;28;20454;-68
2021/06/03 14:14:40;;;;;;;6.93;5.70;;;28.50;85.10;;;;;;4971300;28;20441;-74
2021/06/03 14:17:13;;;;;;;9.63;8.20;;;28.50;84.90;;;;;;4992555;28;20479;-71
2021/06/03 14:19:46;;;;;;;5.73;5.13;;;28.50;84.80;;;;;;4992575;28;20859;-70
2021/06/03 14:22:20;;;;;;;5.97;5.40;;;28.50;84.10;;;;;;4992039;28;20448;-71
2021/06/03 14:24:55;;;;;;;6.60;6.00;;;28.50;84.50;;;;;;4992909;28;20445;-70
2021/06/03 14:27:30;;;;;;;12.60;5.30;;;28.40;84.40;;;;;;4970919;28;20495;-71
2021/06/03 14:30:01;;;;;;;6.40;5.80;;;28.30;84.80;;;;;;4989668;28;20451;-73
2021/06/03 14:32:31;;;;;;;6.20;5.30;;;28.20;85.70;;;;;;4986175;28;20839;-72
2021/06/03 14:35:11;;;;;;;6.30;5.30;;;28.00;86.20;;;;;;4991839;28;20528;-70
2021/06/03 14:37:37;;;;;;;5.73;5.23;;;28.10;86.00;;;;;;4992670;28;20499;-70
2021/06/03 14:40:05;;;;;;;7.97;6.30;;;28.10;86.40;;;;;;4991695;28;20467;-73
2021/06/03 14:42:44;;;;;;;6.17;5.50;;;28.20;85.60;;;;;;4978713;28;20940;-68
2021/06/03 14:45:26;;;;;;;7.60;5.40;;;28.30;84.40;;;;;;4986959;28;20798;-70
2021/06/03 14:47:53;;;;;;;6.43;5.77;;;28.40;84.80;;;;;;4987910;28;20507;-69
2021/06/03 14:50:22;;;;;;;6.40;5.90;;;28.50;85.10;;;;;;4990351;28;20448;-69
2021/06/03 14:52:50;;;;;;;7.10;6.50;;;28.50;84.20;;;;;;4992100;28;20483;-71
2021/06/03 14:55:24;;;;;;;5.17;4.50;;;28.40;84.10;;;;;;4991802;28;20944;-69
2021/06/03 14:57:53;;;;;;;12.87;3.43;;;28.10;83.30;;;;;;4983592;28;20460;-69
2021/06/03 15:00:23;;;;;;;10.77;2.70;;;26.80;83.30;;;;;;4990841;28;20984;-70
2021/06/03 15:02:50;;;;;;;7.70;3.67;;;26.00;87.10;;;;;;4991288;28;20769;-69
2021/06/03 15:05:17;;;;;;;6.73;2.23;;;24.60;91.50;;;;;;4991936;28;20481;-71
2021/06/03 15:07:45;;;;;;;9.40;3.57;;;24.20;93.70;;;;;;4991061;28;20492;-71
2021/06/03 15:10:14;;;;;;;10.73;2.30;;;23.20;95.80;;;;;;4985267;28;20462;-71
2021/06/03 15:12:41;;;;;;;5.30;2.63;;;22.70;98.50;;;;;;4989234;28;20510;-71
2021/06/03 15:15:12;;;;;;;5.67;2.80;;;22.30;99.90;;;;;;4991524;28;20498;-70
2021/06/03 15:17:39;;;;;;;10.93;3.37;;;22.20;99.90;;;;;;4991658;28;20471;-72
2021/06/03 15:20:09;;;;;;;11.43;2.27;;;22.30;99.90;;;;;;4991619;28;20929;-69
2021/06/03 15:22:36;;;;;;;2.80;2.13;;;22.40;99.90;;;;;;4991759;28;20457;-70
2021/06/03 15:25:04;;;;;;;4.30;2.23;;;22.60;99.90;;;;;;4991157;28;20448;-71
2021/06/03 15:27:31;;;;;;;4.40;2.00;;;22.40;99.90;;;;;;4991113;28;21301;-71
2021/06/03 15:29:57;;;;;;;11.30;3.00;;;22.10;99.90;;;;;;4988340;28;20463;-70
2021/06/03 15:32:25;;;;;;;3.83;2.23;;;22.00;99.90;;;;;;4991823;28;20458;-70
2021/06/03 15:34:52;;;;;;;4.73;2.20;;;21.80;99.90;;;;;;4994621;28;20451;-69
2021/06/03 15:37:19;;;;;;;4.37;2.30;;;21.60;99.90;;;;;;4991115;28;20476;-71
2021/06/03 15:39:46;;;;;;;4.23;2.70;;;21.50;99.90;;;;;;4992788;28;20451;-69
2021/06/03 15:42:13;;;;;;;2.30;2.10;;;21.40;99.90;;;;;;4996120;28;20455;-70
2021/06/03 15:44:40;;;;;;;6.60;3.20;;;21.30;99.90;;;;;;4995829;28;20505;-70
2021/06/03 15:47:08;;;;;;;6.50;3.80;;;21.10;99.90;;;;;;4994702;28;20466;-72
2021/06/03 15:49:36;;;;;;;3.83;3.13;;;21.10;99.90;;;;;;4994993;28;21040;-71
2021/06/03 15:52:07;;;;;;;4.20;2.57;;;21.00;99.90;;;;;;4994880;28;20480;-69
2021/06/03 15:54:35;;;;;;;3.57;2.80;;;21.00;99.90;;;;;;4994885;28;20450;-70
2021/06/03 15:57:03;;;;;;;3.30;3.00;;;20.90;99.90;;;;;;4993146;28;20484;-69
2021/06/03 15:59:33;;;;;;;6.30;3.13;;;20.80;99.90;;;;;;4992159;28;20450;-70
2021/06/03 16:01:59;;;;;;;3.30;2.60;;;20.50;99.90;;;;;;4994021;28;20457;-72
2021/06/03 16:04:26;;;;;;;3.40;2.80;;;20.10;99.90;;;;;;4995156;28;20450;-69
2021/06/03 16:06:54;;;;;;;3.60;3.30;;;20.10;99.90;;;;;;4995044;28;20530;-70
2021/06/03 16:09:21;;;;;;;2.70;2.50;;;20.00;99.90;;;;;;4994507;28;20827;-70
2021/06/03 16:11:48;;;;;;;5.83;3.27;;;19.80;99.90;;;;;;4996422;28;20448;-72
2021/06/03 16:14:20;;;;;;;3.73;2.90;;;19.70;99.90;;;;;;4994026;28;20453;-72
2021/06/03 16:16:47;;;;;;;3.07;2.60;;;19.70;99.90;;;;;;4995138;28;21004;-71
2021/06/03 16:19:14;;;;;;;5.73;2.40;;;19.60;99.90;;;;;;4994338;28;20934;-72
2021/06/03 16:21:40;;;;;;;3.30;2.10;;;19.60;99.90;;;;;;4981046;28;20933;-72
2021/06/03 16:24:15;;;;;;;5.43;3.40;;;19.50;99.90;;;;;;4985182;28;20527;-71
2021/06/03 16:26:42;;;;;;;3.80;3.07;;;19.50;99.90;;;;;;4986081;28;20486;-71
2021/06/03 16:29:10;;;;;;;6.67;4.00;;;19.50;99.90;;;;;;4993837;28;20448;-71
2021/06/03 16:31:39;;;;;;;9.53;6.87;;;19.40;99.90;;;;;;4991604;28;20552;-72
2021/06/03 16:34:12;;;;;;;10.93;3.93;;;19.50;99.90;;;;;;4994867;28;20440;-70
2021/06/03 16:36:38;;;;;;;9.83;4.80;;;19.40;99.90;;;;;;4992195;28;20527;-71
2021/06/03 16:39:06;;;;;;;13.13;4.40;;;19.30;99.90;;;;;;5000172;28;20938;-68
2021/06/03 16:41:34;;;;;;;7.53;4.80;;;19.10;99.90;;;;;;4994086;28;20467;-71
2021/06/03 16:44:04;;;;;;;5.43;3.80;;;19.10;99.90;;;;;;4994600;28;20456;-70
2021/06/03 16:46:32;;;;;;;6.70;4.50;;;19.10;99.90;;;;;;4992917;28;21217;-71
2021/06/03 16:48:59;;;;;;;8.77;5.70;;;19.10;99.90;;;;;;4993185;28;20221;-71
2021/06/03 16:51:26;;;;;;;14.30;6.50;;;19.10;99.90;;;;;;4994202;28;21125;-70
2021/06/03 16:53:54;;;;;;;6.30;4.60;;;19.10;99.90;;;;;;4993829;28;20448;-70
2021/06/03 16:56:21;;;;;;;7.57;5.00;;;19.10;99.90;;;;;;4993941;28;20465;-71
2021/06/03 16:58:50;;;;;;;6.97;5.47;;;19.10;99.90;;;;;;4986027;28;20441;-71
2021/06/03 17:01:17;;;;;;;8.37;5.20;;;19.10;99.90;;;;;;4992805;28;21638;-69
2021/06/03 17:03:46;;;;;;;7.00;4.87;;;19.20;99.90;;;;;;4991408;28;20452;-70
2021/06/03 17:06:13;;;;;;;4.80;4.20;;;19.20;99.90;;;;;;4993866;28;20832;-70
2021/06/03 17:08:40;;;;;;;8.17;5.30;;;19.20;99.90;;;;;;4993000;28;20488;-70
2021/06/03 17:11:09;;;;;;;9.17;4.93;;;19.20;99.90;;;;;;4984762;28;20519;-69
2021/06/03 17:13:36;;;;;;;5.77;5.13;;;19.10;99.90;;;;;;4993482;28;20468;-69
2021/06/03 17:16:05;;;;;;;8.73;4.50;;;19.10;99.90;;;;;;4986040;28;20448;-69
2021/06/03 17:18:32;;;;;;;5.50;4.70;;;19.20;99.90;;;;;;4987992;28;20559;-69
2021/06/03 17:21:01;;;;;;;6.20;4.50;;;19.10;99.90;;;;;;4978337;28;20449;-71
2021/06/03 17:23:30;;;;;;;7.87;5.23;;;19.00;99.90;;;;;;4984558;28;20441;-71
2021/06/03 17:25:59;;;;;;;7.93;6.47;;;19.00;99.90;;;;;;4980617;28;20873;-71
2021/06/03 17:28:27;;;;;;;6.83;6.10;;;18.90;99.90;;;;;;4985050;28;20481;-70
2021/06/03 17:30:58;;;;;;;10.40;6.30;;;18.90;99.90;;;;;;4977876;28;20441;-69
2021/06/03 17:33:27;;;;;;;6.77;4.70;;;18.90;99.90;;;;;;4991786;28;20617;-68
2021/06/03 17:35:55;;;;;;;5.07;4.57;;;18.80;99.90;;;;;;4987713;28;20449;-70
2021/06/03 17:38:22;;;;;;;6.10;4.67;;;18.80;99.90;;;;;;4992457;28;20448;-70
2021/06/03 17:40:50;;;;;;;8.17;6.90;;;18.80;99.90;;;;;;4993671;28;20931;-71
2021/06/03 17:43:25;;;;;;;10.00;6.60;;;18.80;99.90;;;;;;4994236;28;20451;-73
2021/06/03 17:45:52;;;;;;;11.23;7.40;;;18.70;99.90;;;;;;4990115;28;20487;-71
2021/06/03 17:48:19;;;;;;;8.00;6.77;;;18.70;99.90;;;;;;4991481;28;20516;-72
2021/06/03 17:50:49;;;;;;;6.03;5.10;;;18.70;99.90;;;;;;4991639;28;20468;-70
2021/06/03 17:53:16;;;;;;;6.67;5.10;;;18.70;99.90;;;;;;4988269;28;20499;-71
2021/06/03 17:55:46;;;;;;;7.60;5.53;;;18.70;99.90;;;;;;4994491;28;20534;-70
2021/06/03 17:58:16;;;;;;;9.43;7.93;;;18.60;99.90;;;;;;4995395;28;20451;-73
2021/06/03 18:00:45;;;;;;;10.70;8.27;;;18.60;99.90;;;;;;4993675;28;20464;-72
2021/06/03 18:03:13;;;;;;;10.07;7.20;;;18.60;99.90;;;;;;4993921;28;20437;-72
2021/06/03 18:05:51;;;;;;;7.70;5.63;;;18.50;99.90;;;;;;4990788;28;20468;-72
2021/06/03 18:08:19;;;;;;;13.43;7.60;;;18.50;99.90;;;;;;4987510;28;20520;-72
2021/06/03 18:10:50;;;;;;;10.73;8.00;;;18.40;99.90;;;;;;4990518;28;20456;-72
2021/06/03 18:13:21;;;;;;;7.13;5.60;;;18.40;99.90;;;;;;4979720;28;20481;-72
2021/06/03 18:15:48;;;;;;;5.77;4.00;;;18.40;99.90;;;;;;4981470;28;20457;-75
2021/06/03 18:18:15;;;;;;;7.97;5.47;;;18.40;99.90;;;;;;4989409;28;20935;-74
2021/06/03 18:20:43;;;;;;;9.60;4.57;;;18.40;99.90;;;;;;4993877;28;20536;-75
2021/06/03 18:23:12;;;;;;;9.27;6.53;;;18.40;99.90;;;;;;4993408;28;20452;-73
2021/06/03 18:25:40;;;;;;;8.43;7.33;;;18.40;99.90;;;;;;4984067;28;20480;-73
2021/06/03 18:28:07;;;;;;;9.27;6.80;;;18.30;99.90;;;;;;4988531;28;20494;-71
2021/06/03 18:30:35;;;;;;;6.50;5.33;;;18.40;99.90;;;;;;4988394;28;20459;-75
2021/06/03 18:33:02;;;;;;;8.77;5.57;;;18.40;99.90;;;;;;4994319;28;20464;-73
2021/06/03 18:35:30;;;;;;;6.20;5.30;;;18.40;99.90;;;;;;4992895;28;20531;-72
2021/06/03 18:37:59;;;;;;;7.43;4.60;;;18.40;99.90;;;;;;4992009;28;20487;-73
2021/06/03 18:40:31;;;;;;;3.90;3.57;;;18.50;99.90;;;;;;4989793;28;20459;-73
2021/06/03 18:42:58;;;;;;;4.87;4.33;;;18.50;99.90;;;;;;4990791;28;20448;-71
2021/06/03 18:45:29;;;;;;;4.90;4.40;;;18.60;99.90;;;;;;4990644;28;20455;-73
2021/06/03 18:47:56;;;;;;;5.07;4.47;;;18.50;99.90;;;;;;4992202;28;20979;-72
2021/06/03 18:50:27;;;;;;;6.23;4.23;;;18.60;99.90;;;;;;4986717;28;20452;-72
2021/06/03 18:52:54;;;;;;;4.77;4.37;;;18.60;99.90;;;;;;4977802;28;20477;-73
2021/06/03 18:55:23;;;;;;;4.83;4.03;;;18.70;99.90;;;;;;4993606;28;20445;-74
2021/06/03 18:57:52;;;;;;;7.30;5.30;;;18.80;99.90;;;;;;4993688;28;20495;-74
2021/06/03 19:00:21;;;;;;;5.73;4.43;;;18.80;99.90;;;;;;4995117;28;20832;-73
2021/06/03 19:02:48;;;;;;;5.13;4.63;;;18.90;99.90;;;;;;4995091;28;20441;-74
2021/06/03 19:05:16;;;;;;;6.83;4.60;;;18.90;99.90;;;;;;4994410;28;20892;-73
2021/06/03 19:07:44;;;;;;;5.00;4.60;;;19.00;99.90;;;;;;4994084;28;20472;-74
2021/06/03 19:10:15;;;;;;;6.33;5.37;;;19.00;99.90;;;;;;4993709;28;20449;-73
2021/06/03 19:12:41;;;;;;;4.37;3.97;;;19.00;99.90;;;;;;4993108;28;20485;-74
2021/06/03 19:15:11;;;;;;;5.13;3.90;;;19.00;99.90;;;;;;4991102;28;20466;-73
2021/06/03 19:17:37;;;;;;;5.43;4.90;;;19.00;99.90;;;;;;4993699;28;20469;-74
2021/06/03 19:20:05;;;;;;;12.97;9.97;;;18.90;99.90;;;;;;4993056;28;20504;-74
2021/06/03 19:22:32;;;;;;;5.97;5.47;;;18.90;99.90;;;;;;4994250;28;20447;-74
2021/06/03 19:25:01;;;;;;;6.63;5.90;;;18.80;99.90;;;;;;4994637;28;20739;-75
2021/06/03 19:27:28;;;;;;;6.40;5.87;;;18.70;99.90;;;;;;4994144;28;20477;-75
2021/06/03 19:29:55;;;;;;;7.20;6.57;;;18.60;99.90;;;;;;4993704;28;20473;-75
2021/06/03 19:32:24;;;;;;;5.60;5.10;;;18.70;99.90;;;;;;4993300;28;20437;-74
2021/06/03 19:34:51;;;;;;;6.43;4.97;;;18.70;99.90;;;;;;4993531;28;20863;-76
2021/06/03 19:37:18;;;;;;;8.57;4.63;;;18.60;99.90;;;;;;4994407;28;20486;-74
2021/06/03 19:39:44;;;;;;;5.87;5.27;;;18.60;99.90;;;;;;4993141;28;20541;-73
2021/06/03 19:42:12;;;;;;;4.93;4.07;;;18.60;99.90;;;;;;4993276;28;20455;-74
2021/06/03 19:44:39;;;;;;;5.27;4.83;;;18.70;99.90;;;;;;4993471;28;20449;-73
2021/06/03 19:47:06;;;;;;;6.00;5.00;;;18.70;99.90;;;;;;4992387;28;20974;-74
2021/06/03 19:49:34;;;;;;;5.97;5.40;;;18.70;99.90;;;;;;4989781;28;21065;-75
2021/06/03 19:52:05;;;;;;;5.43;4.30;;;18.70;99.90;;;;;;4990820;28;20903;-75
2021/06/03 19:54:33;;;;;;;5.67;5.17;;;18.70;99.90;;;;;;4994165;28;20448;-75
2021/06/03 19:57:01;;;;;;;4.43;4.03;;;18.60;99.90;;;;;;4992202;28;20479;-74
2021/06/03 19:59:27;;;;;;;6.00;5.40;;;18.60;99.90;;;;;;4992556;28;20472;-72
2021/06/03 20:01:54;;;;;;;4.60;4.20;;;18.60;99.90;;;;;;4993820;28;20811;-75
2021/06/03 20:04:21;;;;;;;5.30;4.80;;;18.60;99.90;;;;;;4990964;28;20437;-74
2021/06/03 20:06:52;;;;;;;5.60;5.00;;;18.60;99.90;;;;;;4993355;28;20475;-74
2021/06/03 20:09:18;;;;;;;5.13;4.63;;;18.60;99.90;;;;;;4994176;28;20492;-74
2021/06/03 20:11:45;;;;;;;5.30;4.80;;;18.60;99.90;;;;;;4994278;28;20460;-74
2021/06/03 20:14:13;;;;;;;5.47;4.97;;;18.60;99.90;;;;;;4987920;28;20473;-74
2021/06/03 20:16:44;;;;;;;8.93;4.80;;;18.60;99.90;;;;;;4982348;28;20901;-74
2021/06/03 20:19:11;;;;;;;5.47;4.97;;;18.60;99.90;;;;;;4983864;28;20581;-73
2021/06/03 20:21:38;;;;;;;6.00;5.30;;;18.60;99.90;;;;;;4987356;28;20458;-74
2021/06/03 20:24:07;;;;;;;4.83;4.43;;;18.70;99.90;;;;;;4988854;28;20457;-76
2021/06/03 20:26:34;;;;;;;4.90;4.50;;;18.60;99.90;;;;;;4992349;28;20487;-75
2021/06/03 20:29:01;;;;;;;5.07;4.60;;;18.70;99.90;;;;;;4990057;28;20544;-74
2021/06/03 20:31:28;;;;;;;5.03;4.40;;;18.70;99.90;;;;;;4990794;28;20465;-74
2021/06/03 20:33:55;;;;;;;4.40;4.00;;;18.80;99.90;;;;;;4984856;28;20911;-74
2021/06/03 20:36:22;;;;;;;5.70;5.20;;;18.70;99.90;;;;;;4986545;28;20459;-74
2021/06/03 20:38:49;;;;;;;4.90;4.50;;;18.80;99.90;;;;;;4987424;28;20872;-72
2021/06/03 20:41:18;;;;;;;5.00;4.60;;;18.80;99.90;;;;;;4985786;28;20450;-73
2021/06/03 20:43:45;;;;;;;5.83;4.97;;;18.80;99.90;;;;;;4983823;28;20458;-73
2021/06/03 20:46:11;;;;;;;5.80;5.30;;;18.80;99.90;;;;;;4993553;28;20966;-73
2021/06/03 20:51:23;;;;;;;6.30;5.57;;;18.80;99.90;;;;;;5088633;23;20860;-73
2021/06/03 20:53:51;;;;;;;5.90;5.40;;;18.90;99.90;;;;;;4990231;28;20531;-73
2021/06/03 20:56:19;;;;;;;6.27;5.67;;;19.00;99.90;;;;;;4987988;28;20472;-73
2021/06/03 20:58:46;;;;;;;6.37;5.77;;;19.00;99.90;;;;;;4991079;28;20467;-72
2021/06/03 21:01:12;;;;;;;7.87;5.80;;;19.00;99.90;;;;;;4991785;28;20483;-72
2021/06/03 21:03:40;;;;;;;7.73;7.03;;;19.00;99.90;;;;;;4993991;28;20463;-71
2021/06/03 21:06:07;;;;;;;6.17;5.67;;;18.90;99.90;;;;;;4988354;28;20778;-71
2021/06/03 21:08:33;;;;;;;5.20;4.70;;;19.00;99.90;;;;;;4991773;28;20492;-72
2021/06/03 21:11:01;;;;;;;5.50;5.00;;;19.00;99.90;;;;;;4994237;28;20509;-72
2021/06/03 21:13:29;;;;;;;7.10;6.47;;;19.10;99.90;;;;;;4992231;28;20523;-73
2021/06/03 21:15:56;;;;;;;6.50;5.90;;;19.00;99.90;;;;;;4993882;28;20448;-72
2021/06/03 21:18:22;;;;;;;6.83;6.20;;;19.00;99.90;;;;;;4993692;28;20457;-70
2021/06/03 21:20:49;;;;;;;7.47;6.77;;;19.00;99.90;;;;;;4994414;28;20494;-71
2021/06/03 21:23:18;;;;;;;6.80;6.30;;;19.00;99.90;;;;;;4990166;28;20459;-72
2021/06/03 21:25:44;;;;;;;7.30;6.60;;;19.00;99.90;;;;;;4988444;28;20453;-71
2021/06/03 21:28:11;;;;;;;8.57;7.77;;;19.00;99.90;;;;;;4985979;28;20489;-71
2021/06/03 21:30:55;;;;;;;6.90;6.33;;;19.00;99.90;;;;;;4994851;28;20471;-70
2021/06/03 21:33:24;;;;;;;6.53;6.03;;;18.90;99.90;;;;;;4993601;28;20467;-70
2021/06/03 21:36:07;;;;;;;8.50;7.23;;;18.80;99.90;;;;;;4994371;28;20532;-68
2021/06/03 21:38:34;;;;;;;7.97;7.37;;;18.80;99.90;;;;;;4990426;28;20490;-70
2021/06/03 21:41:19;;;;;;;9.03;8.20;;;18.70;99.90;;;;;;4994211;28;20537;-70
2021/06/03 21:43:48;;;;;;;10.70;8.30;;;18.70;99.90;;;;;;4989366;28;20460;-71
2021/06/03 21:46:18;;;;;;;9.23;7.20;;;18.70;99.90;;;;;;4993405;28;20931;-71
2021/06/03 21:48:44;;;;;;;8.47;7.77;;;18.70;99.90;;;;;;4992015;28;20835;-71
2021/06/03 21:51:11;;;;;;;8.43;7.63;;;18.70;99.90;;;;;;4993125;28;20560;-71
2021/06/03 21:53:38;;;;;;;8.17;7.43;;;18.70;99.90;;;;;;4992467;28;20450;-71
2021/06/03 21:56:04;;;;;;;8.30;7.60;;;18.70;99.90;;;;;;5000727;28;20436;-71
2021/06/03 21:58:31;;;;;;;8.50;7.70;;;18.70;99.90;;;;;;5005815;28;20455;-72
2021/06/03 22:00:59;;;;;;;8.67;7.97;;;18.70;99.90;;;;;;5005231;28;20521;-72
2021/06/03 22:03:29;;;;;;;8.90;8.20;;;18.60;99.90;;;;;;5003709;28;20452;-72